Terminal Aerodrome Forecast
Issued by NWS Sioux Falls, SD

Home | Current Version | Previous Version | Graphics & Text | Print | Product List | Glossary Off
Versions: 1 2 3 4 5 6 7 8 9 10 11 12 13 14 15

988
FTUS43 KFSD 181720
TAFFSD
TAF
KFSD 181720Z 1818/1918 17013G24KT P6SM BKN140
     FM182300 14009KT P6SM BKN150
     FM190600 04007KT P6SM OVC080
     FM191200 02014G20KT P6SM OVC020=

USA.gov is the U.S. government's official web portal to all federal, state and local government web resources and services.